sensor_id;sensor_type;location;lat;lon;timestamp;P1;durP1;ratioP1;P2;durP2;ratioP2
24867;SDS011;12941;48.698;9.310;2024-01-15T00:01:04;37.9;;;17;;
24867;SDS011;12941;48.698;9.310;2024-01-15T00:02:09;37.9;;;17;;
24867;SDS011;12941;48.698;9.310;2024-01-15T00:03:14;37.9;;;17;;
24867;SDS011;12941;48.698;9.310;2024-01-15T00:04:19;24;;;11.2;;
24867;SDS011;12941;48.698;9.310;2024-01-15T00:05:24;24;;;11.2;;
24867;SDS011;12941;48.698;9.310;2024-01-15T00:06:24;24;;;11.2;;
24867;SDS011;12941;48.698;9.310;2024-01-15T00:07:29;24;;;11.2;;
24867;SDS011;12941;48.698;9.310;2024-01-15T00:08:29;24;;;11.2;;
24867;SDS011;12941;48.698;9.310;2024-01-15T00:09:35;18.4;;;8.9;;
24867;SDS011;12941;48.698;9.310;2024-01-15T00:10:34;18.4;;;8.9;;
24867;SDS011;12941;48.698;9.310;2024-01-15T00:11:39;18.4;;;8.9;;
24867;SDS011;12941;48.698;9.310;2024-01-15T00:12:39;18.4;;;8.9;;
24867;SDS011;12941;48.698;9.310;2024-01-15T00:13:44;18.4;;;8.9;;
24867;SDS011;12941;48.698;9.310;2024-01-15T00:14:44;16.2;;;7.6;;
24867;SDS011;12941;48.698;9.310;2024-01-15T00:15:44;16.2;;;7.6;;
24867;SDS011;12941;48.698;9.310;2024-01-15T00:16:50;16.2;;;7.6;;
24867;SDS011;12941;48.698;9.310;2024-01-15T00:17:49;16.2;;;7.6;;
24867;SDS011;12941;48.698;9.310;2024-01-15T00:18:53;17.5;;;8;;
24867;SDS011;12941;48.698;9.310;2024-01-15T00:19:54;17.5;;;8;;
24867;SDS011;12941;48.698;9.310;2024-01-15T00:20:54;17.5;;;8;;
24867;SDS011;12941;48.698;9.310;2024-01-15T00:21:59;17.5;;;8;;
24867;SDS011;12941;48.698;9.310;2024-01-15T00:22:59;17.5;;;8;;
24867;SDS011;12941;48.698;9.310;2024-01-15T00:23:59;18.1;;;7.9;;
24867;SDS011;12941;48.698;9.310;2024-01-15T00:25:05;18.1;;;7.9;;
24867;SDS011;12941;48.698;9.310;2024-01-15T00:26:09;18.1;;;7.9;;
24867;SDS011;12941;48.698;9.310;2024-01-15T00:27:09;18.1;;;7.9;;
24867;SDS011;12941;48.698;9.310;2024-01-15T00:28:15;18.1;;;7.9;;
24867;SDS011;12941;48.698;9.310;2024-01-15T00:29:20;15.6;;;8;;
24867;SDS011;12941;48.698;9.310;2024-01-15T00:30:24;15.6;;;8;;
24867;SDS011;12941;48.698;9.310;2024-01-15T00:31:24;15.6;;;8;;
24867;SDS011;12941;48.698;9.310;2024-01-15T00:32:25;15.6;;;8;;
24867;SDS011;12941;48.698;9.310;2024-01-15T00:33:25;15.6;;;8;;
24867;SDS011;12941;48.698;9.310;2024-01-15T00:34:25;15.3;;;7.7;;
24867;SDS011;12941;48.698;9.310;2024-01-15T00:35:30;15.3;;;7.7;;
24867;SDS011;12941;48.698;9.310;2024-01-15T00:36:35;15.3;;;7.7;;
24867;SDS011;12941;48.698;9.310;2024-01-15T00:37:35;15.3;;;7.7;;
24867;SDS011;12941;48.698;9.310;2024-01-15T00:38:35;15.3;;;7.7;;
24867;SDS011;12941;48.698;9.310;2024-01-15T00:39:35;16;;;7.6;;
24867;SDS011;12941;48.698;9.310;2024-01-15T00:40:40;16;;;7.6;;
24867;SDS011;12941;48.698;9.310;2024-01-15T00:41:40;16;;;7.6;;
24867;SDS011;12941;48.698;9.310;2024-01-15T00:42:45;16;;;7.6;;
24867;SDS011;12941;48.698;9.310;2024-01-15T00:43:45;16;;;7.6;;
24867;SDS011;12941;48.698;9.310;2024-01-15T00:44:50;16.1;;;7.7;;
24867;SDS011;12941;48.698;9.310;2024-01-15T00:45:50;16.1;;;7.7;;
24867;SDS011;12941;48.698;9.310;2024-01-15T00:46:50;16.1;;;7.7;;
24867;SDS011;12941;48.698;9.310;2024-01-15T00:47:55;16.1;;;7.7;;
24867;SDS011;12941;48.698;9.310;2024-01-15T00:49:00;13.8;;;7;;
24867;SDS011;12941;48.698;9.310;2024-01-15T00:50:05;13.8;;;7;;
24867;SDS011;12941;48.698;9.310;2024-01-15T00:51:10;13.8;;;7;;
24867;SDS011;12941;48.698;9.310;2024-01-15T00:52:10;13.8;;;7;;
24867;SDS011;12941;48.698;9.310;2024-01-15T00:53:15;13.8;;;7;;
24867;SDS011;12941;48.698;9.310;2024-01-15T00:54:15;14.4;;;6.8;;
24867;SDS011;12941;48.698;9.310;2024-01-15T00:55:20;14.4;;;6.8;;
24867;SDS011;12941;48.698;9.310;2024-01-15T00:56:20;14.4;;;6.8;;
24867;SDS011;12941;48.698;9.310;2024-01-15T00:57:25;14.4;;;6.8;;
24867;SDS011;12941;48.698;9.310;2024-01-15T00:58:25;14.4;;;6.8;;
24867;SDS011;12941;48.698;9.310;2024-01-15T00:59:30;15.7;;;7;;
24867;SDS011;12941;48.698;9.310;2024-01-15T01:00:35;15.7;;;7;;
24867;SDS011;12941;48.698;9.310;2024-01-15T01:01:40;15.7;;;7;;
24867;SDS011;12941;48.698;9.310;2024-01-15T01:02:40;15.7;;;7;;
24867;SDS011;12941;48.698;9.310;2024-01-15T01:03:45;15.7;;;7;;
24867;SDS011;12941;48.698;9.310;2024-01-15T01:04:50;16.4;;;7.4;;
24867;SDS011;12941;48.698;9.310;2024-01-15T01:05:50;16.4;;;7.4;;
24867;SDS011;12941;48.698;9.310;2024-01-15T01:06:55;16.4;;;7.4;;
24867;SDS011;12941;48.698;9.310;2024-01-15T01:07:55;16.4;;;7.4;;
24867;SDS011;12941;48.698;9.310;2024-01-15T01:08:55;14.7;;;7.2;;
24867;SDS011;12941;48.698;9.310;2024-01-15T01:10:00;14.7;;;7.2;;
24867;SDS011;12941;48.698;9.310;2024-01-15T01:11:00;14.7;;;7.2;;
24867;SDS011;12941;48.698;9.310;2024-01-15T01:12:00;14.7;;;7.2;;
24867;SDS011;12941;48.698;9.310;2024-01-15T01:13:00;14.7;;;7.2;;
24867;SDS011;12941;48.698;9.310;2024-01-15T01:14:05;16.6;;;7.5;;
24867;SDS011;12941;48.698;9.310;2024-01-15T01:15:05;16.6;;;7.5;;
24867;SDS011;12941;48.698;9.310;2024-01-15T01:16:10;16.6;;;7.5;;
24867;SDS011;12941;48.698;9.310;2024-01-15T01:17:10;16.6;;;7.5;;
24867;SDS011;12941;48.698;9.310;2024-01-15T01:18:15;16.6;;;7.5;;
24867;SDS011;12941;48.698;9.310;2024-01-15T01:19:15;14.2;;;6.9;;
24867;SDS011;12941;48.698;9.310;2024-01-15T01:20:20;14.2;;;6.9;;
24867;SDS011;12941;48.698;9.310;2024-01-15T01:21:20;14.2;;;6.9;;
24867;SDS011;12941;48.698;9.310;2024-01-15T01:22:25;14.2;;;6.9;;
24867;SDS011;12941;48.698;9.310;2024-01-15T01:23:25;14.2;;;6.9;;
24867;SDS011;12941;48.698;9.310;2024-01-15T01:24:25;13.3;;;6.6;;
24867;SDS011;12941;48.698;9.310;2024-01-15T01:25:30;13.3;;;6.6;;
24867;SDS011;12941;48.698;9.310;2024-01-15T01:26:30;13.3;;;6.6;;
24867;SDS011;12941;48.698;9.310;2024-01-15T01:27:30;13.3;;;6.6;;
24867;SDS011;12941;48.698;9.310;2024-01-15T01:28:30;13.3;;;6.6;;
24867;SDS011;12941;48.698;9.310;2024-01-15T01:29:35;16.8;;;7.7;;
24867;SDS011;12941;48.698;9.310;2024-01-15T01:30:40;16.8;;;7.7;;
24867;SDS011;12941;48.698;9.310;2024-01-15T01:31:45;16.8;;;7.7;;
24867;SDS011;12941;48.698;9.310;2024-01-15T01:32:45;16.8;;;7.7;;
24867;SDS011;12941;48.698;9.310;2024-01-15T01:33:50;17.6;;;8.1;;
24867;SDS011;12941;48.698;9.310;2024-01-15T01:34:50;17.6;;;8.1;;
24867;SDS011;12941;48.698;9.310;2024-01-15T01:35:50;17.6;;;8.1;;
24867;SDS011;12941;48.698;9.310;2024-01-15T01:36:55;17.6;;;8.1;;
24867;SDS011;12941;48.698;9.310;2024-01-15T01:38:00;17.6;;;8.1;;
24867;SDS011;12941;48.698;9.310;2024-01-15T01:39:05;14.9;;;7.9;;
24867;SDS011;12941;48.698;9.310;2024-01-15T01:40:05;14.9;;;7.9;;
24867;SDS011;12941;48.698;9.310;2024-01-15T01:41:11;14.9;;;7.9;;
24867;SDS011;12941;48.698;9.310;2024-01-15T01:42:15;14.9;;;7.9;;
24867;SDS011;12941;48.698;9.310;2024-01-15T01:43:15;14.9;;;7.9;;
24867;SDS011;12941;48.698;9.310;2024-01-15T01:44:15;14.7;;;7.1;;
24867;SDS011;12941;48.698;9.310;2024-01-15T01:45:15;14.7;;;7.1;;
24867;SDS011;12941;48.698;9.310;2024-01-15T01:46:15;14.7;;;7.1;;
24867;SDS011;12941;48.698;9.310;2024-01-15T01:47:20;14.7;;;7.1;;
24867;SDS011;12941;48.698;9.310;2024-01-15T01:48:25;14.7;;;7.1;;
24867;SDS011;12941;48.698;9.310;2024-01-15T01:49:30;15.5;;;7.3;;
24867;SDS011;12941;48.698;9.310;2024-01-15T01:50:30;15.5;;;7.3;;
24867;SDS011;12941;48.698;9.310;2024-01-15T01:51:35;15.5;;;7.3;;
24867;SDS011;12941;48.698;9.310;2024-01-15T01:52:35;15.5;;;7.3;;
24867;SDS011;12941;48.698;9.310;2024-01-15T01:53:35;15.5;;;7.3;;
24867;SDS011;12941;48.698;9.310;2024-01-15T01:54:35;14.9;;;7.5;;
24867;SDS011;12941;48.698;9.310;2024-01-15T01:55:40;14.9;;;7.5;;
24867;SDS011;12941;48.698;9.310;2024-01-15T01:56:40;14.9;;;7.5;;
24867;SDS011;12941;48.698;9.310;2024-01-15T01:57:40;14.9;;;7.5;;
24867;SDS011;12941;48.698;9.310;2024-01-15T01:58:45;14.9;;;7.5;;
24867;SDS011;12941;48.698;9.310;2024-01-15T01:59:45;17.3;;;8.2;;
24867;SDS011;12941;48.698;9.310;2024-01-15T02:00:45;17.3;;;8.2;;
24867;SDS011;12941;48.698;9.310;2024-01-15T02:01:50;17.3;;;8.2;;
24867;SDS011;12941;48.698;9.310;2024-01-15T02:02:50;17.3;;;8.2;;
24867;SDS011;12941;48.698;9.310;2024-01-15T02:03:51;18;;;8.1;;
24867;SDS011;12941;48.698;9.310;2024-01-15T02:04:55;18.3;;;8.1;;
24867;SDS011;12941;48.698;9.310;2024-01-15T02:05:56;18.3;;;8.1;;
24867;SDS011;12941;48.698;9.310;2024-01-15T02:07:00;18.3;;;8.1;;
24867;SDS011;12941;48.698;9.310;2024-01-15T02:08:00;18.3;;;8.1;;
24867;SDS011;12941;48.698;9.310;2024-01-15T02:09:01;14.1;;;7.4;;
24867;SDS011;12941;48.698;9.310;2024-01-15T02:10:05;14.1;;;7.4;;
24867;SDS011;12941;48.698;9.310;2024-01-15T02:11:05;14.1;;;7.4;;
24867;SDS011;12941;48.698;9.310;2024-01-15T02:12:10;14.1;;;7.4;;
24867;SDS011;12941;48.698;9.310;2024-01-15T02:13:10;14.1;;;7.4;;
24867;SDS011;12941;48.698;9.310;2024-01-15T02:14:11;15;;;7.2;;
24867;SDS011;12941;48.698;9.310;2024-01-15T02:15:11;15;;;7.2;;
24867;SDS011;12941;48.698;9.310;2024-01-15T02:16:15;15;;;7.2;;
24867;SDS011;12941;48.698;9.310;2024-01-15T02:17:15;15;;;7.2;;
24867;SDS011;12941;48.698;9.310;2024-01-15T02:18:21;15;;;7.2;;
24867;SDS011;12941;48.698;9.310;2024-01-15T02:19:21;17;;;7.8;;
24867;SDS011;12941;48.698;9.310;2024-01-15T02:20:20;17;;;7.8;;
24867;SDS011;12941;48.698;9.310;2024-01-15T02:21:20;17;;;7.8;;
24867;SDS011;12941;48.698;9.310;2024-01-15T02:22:25;17;;;7.8;;
24867;SDS011;12941;48.698;9.310;2024-01-15T02:23:30;17;;;7.8;;
24867;SDS011;12941;48.698;9.310;2024-01-15T02:24:30;13;;;7;;
24867;SDS011;12941;48.698;9.310;2024-01-15T02:25:30;13;;;7;;
24867;SDS011;12941;48.698;9.310;2024-01-15T02:26:35;13;;;7;;
24867;SDS011;12941;48.698;9.310;2024-01-15T02:27:41;13;;;7;;
24867;SDS011;12941;48.698;9.310;2024-01-15T02:28:45;13;;;7;;
24867;SDS011;12941;48.698;9.310;2024-01-15T02:29:45;16.9;;;7.5;;
24867;SDS011;12941;48.698;9.310;2024-01-15T02:30:45;16.9;;;7.5;;
24867;SDS011;12941;48.698;9.310;2024-01-15T02:31:45;16.9;;;7.5;;
24867;SDS011;12941;48.698;9.310;2024-01-15T02:32:50;16.9;;;7.5;;
24867;SDS011;12941;48.698;9.310;2024-01-15T02:33:51;13.1;;;7;;
24867;SDS011;12941;48.698;9.310;2024-01-15T02:34:55;12.9;;;7;;
24867;SDS011;12941;48.698;9.310;2024-01-15T02:36:00;12.9;;;7;;
24867;SDS011;12941;48.698;9.310;2024-01-15T02:37:01;12.9;;;7;;
24867;SDS011;12941;48.698;9.310;2024-01-15T02:38:01;12.9;;;7;;
24867;SDS011;12941;48.698;9.310;2024-01-15T02:39:01;14.1;;;6.9;;
24867;SDS011;12941;48.698;9.310;2024-01-15T02:40:05;14.1;;;6.9;;
24867;SDS011;12941;48.698;9.310;2024-01-15T02:41:05;14.1;;;6.9;;
24867;SDS011;12941;48.698;9.310;2024-01-15T02:42:11;14.1;;;6.9;;
24867;SDS011;12941;48.698;9.310;2024-01-15T02:43:15;14.1;;;6.9;;
24867;SDS011;12941;48.698;9.310;2024-01-15T02:44:21;15.6;;;7;;
24867;SDS011;12941;48.698;9.310;2024-01-15T02:45:25;15.6;;;7;;
24867;SDS011;12941;48.698;9.310;2024-01-15T02:46:25;15.6;;;7;;
24867;SDS011;12941;48.698;9.310;2024-01-15T02:47:31;15.6;;;7;;
24867;SDS011;12941;48.698;9.310;2024-01-15T02:48:35;15.6;;;7;;
24867;SDS011;12941;48.698;9.310;2024-01-15T02:49:35;16.6;;;7.7;;
24867;SDS011;12941;48.698;9.310;2024-01-15T02:50:35;16.6;;;7.7;;
24867;SDS011;12941;48.698;9.310;2024-01-15T02:51:41;16.6;;;7.7;;
24867;SDS011;12941;48.698;9.310;2024-01-15T02:52:41;16.6;;;7.7;;
24867;SDS011;12941;48.698;9.310;2024-01-15T02:53:45;16.6;;;7.7;;
24867;SDS011;12941;48.698;9.310;2024-01-15T02:54:51;13.6;;;6.9;;
24867;SDS011;12941;48.698;9.310;2024-01-15T02:55:51;13.6;;;6.9;;
24867;SDS011;12941;48.698;9.310;2024-01-15T02:56:55;13.6;;;6.9;;
24867;SDS011;12941;48.698;9.310;2024-01-15T02:58:01;13.6;;;6.9;;
24867;SDS011;12941;48.698;9.310;2024-01-15T02:59:05;15.4;;;7.7;;
24867;SDS011;12941;48.698;9.310;2024-01-15T03:00:06;15.4;;;7.7;;
24867;SDS011;12941;48.698;9.310;2024-01-15T03:01:11;15.4;;;7.7;;
24867;SDS011;12941;48.698;9.310;2024-01-15T03:02:15;15.4;;;7.7;;
24867;SDS011;12941;48.698;9.310;2024-01-15T03:03:15;15.4;;;7.7;;
24867;SDS011;12941;48.698;9.310;2024-01-15T03:04:21;14;;;6.8;;
24867;SDS011;12941;48.698;9.310;2024-01-15T03:05:21;14;;;6.8;;
24867;SDS011;12941;48.698;9.310;2024-01-15T03:06:25;14;;;6.8;;
24867;SDS011;12941;48.698;9.310;2024-01-15T03:07:25;14;;;6.8;;
24867;SDS011;12941;48.698;9.310;2024-01-15T03:08:25;14;;;6.8;;
24867;SDS011;12941;48.698;9.310;2024-01-15T03:09:25;11.1;;;6;;
24867;SDS011;12941;48.698;9.310;2024-01-15T03:10:31;11.1;;;6;;
24867;SDS011;12941;48.698;9.310;2024-01-15T03:11:36;11.1;;;6;;
24867;SDS011;12941;48.698;9.310;2024-01-15T03:12:36;11.1;;;6;;
24867;SDS011;12941;48.698;9.310;2024-01-15T03:13:41;11.1;;;6;;
24867;SDS011;12941;48.698;9.310;2024-01-15T03:14:41;17.7;;;7.2;;
24867;SDS011;12941;48.698;9.310;2024-01-15T03:15:41;17.7;;;7.2;;
24867;SDS011;12941;48.698;9.310;2024-01-15T03:16:45;17.7;;;7.2;;
24867;SDS011;12941;48.698;9.310;2024-01-15T03:17:45;17.7;;;7.2;;
24867;SDS011;12941;48.698;9.310;2024-01-15T03:18:45;17.7;;;7.2;;
24867;SDS011;12941;48.698;9.310;2024-01-15T03:19:46;11.3;;;5.2;;
24867;SDS011;12941;48.698;9.310;2024-01-15T03:20:51;11.3;;;5.2;;
24867;SDS011;12941;48.698;9.310;2024-01-15T03:21:51;11.3;;;5.2;;
24867;SDS011;12941;48.698;9.310;2024-01-15T03:22:55;11.3;;;5.2;;
24867;SDS011;12941;48.698;9.310;2024-01-15T03:23:56;15.5;;;6.9;;
24867;SDS011;12941;48.698;9.310;2024-01-15T03:25:01;15.5;;;6.9;;
24867;SDS011;12941;48.698;9.310;2024-01-15T03:26:05;15.5;;;6.9;;
24867;SDS011;12941;48.698;9.310;2024-01-15T03:27:05;15.5;;;6.9;;
24867;SDS011;12941;48.698;9.310;2024-01-15T03:28:06;15.5;;;6.9;;
24867;SDS011;12941;48.698;9.310;2024-01-15T03:29:05;13.3;;;6.5;;
24867;SDS011;12941;48.698;9.310;2024-01-15T03:30:11;13.3;;;6.5;;
24867;SDS011;12941;48.698;9.310;2024-01-15T03:31:11;13.3;;;6.5;;
24867;SDS011;12941;48.698;9.310;2024-01-15T03:32:15;13.3;;;6.5;;
24867;SDS011;12941;48.698;9.310;2024-01-15T03:33:15;13.3;;;6.5;;
24867;SDS011;12941;48.698;9.310;2024-01-15T03:34:21;15.2;;;6.9;;
24867;SDS011;12941;48.698;9.310;2024-01-15T03:35:26;15.2;;;6.9;;
24867;SDS011;12941;48.698;9.310;2024-01-15T03:36:26;15.2;;;6.9;;
24867;SDS011;12941;48.698;9.310;2024-01-15T03:37:31;15.2;;;6.9;;
24867;SDS011;12941;48.698;9.310;2024-01-15T03:38:31;15.2;;;6.9;;
24867;SDS011;12941;48.698;9.310;2024-01-15T03:39:36;16;;;7.2;;
24867;SDS011;12941;48.698;9.310;2024-01-15T03:40:36;16;;;7.2;;
24867;SDS011;12941;48.698;9.310;2024-01-15T03:41:36;16;;;7.2;;
24867;SDS011;12941;48.698;9.310;2024-01-15T03:42:36;16;;;7.2;;
24867;SDS011;12941;48.698;9.310;2024-01-15T03:43:36;16;;;7.2;;
24867;SDS011;12941;48.698;9.310;2024-01-15T03:44:41;14.7;;;6.9;;
24867;SDS011;12941;48.698;9.310;2024-01-15T03:45:41;14.7;;;6.9;;
24867;SDS011;12941;48.698;9.310;2024-01-15T03:46:46;14.7;;;6.9;;
24867;SDS011;12941;48.698;9.310;2024-01-15T03:47:51;14.7;;;6.9;;
24867;SDS011;12941;48.698;9.310;2024-01-15T03:48:52;14.2;;;6.7;;
24867;SDS011;12941;48.698;9.310;2024-01-15T03:49:56;14.2;;;6.7;;
24867;SDS011;12941;48.698;9.310;2024-01-15T03:50:56;14.2;;;6.7;;
24867;SDS011;12941;48.698;9.310;2024-01-15T03:51:56;14.2;;;6.7;;
24867;SDS011;12941;48.698;9.310;2024-01-15T03:52:56;14.2;;;6.7;;
24867;SDS011;12941;48.698;9.310;2024-01-15T03:53:56;14.2;;;6;;
24867;SDS011;12941;48.698;9.310;2024-01-15T03:55:01;14.2;;;6;;
24867;SDS011;12941;48.698;9.310;2024-01-15T03:56:01;14.2;;;6;;
24867;SDS011;12941;48.698;9.310;2024-01-15T03:57:01;14.2;;;6;;
24867;SDS011;12941;48.698;9.310;2024-01-15T03:58:06;14.2;;;6;;
24867;SDS011;12941;48.698;9.310;2024-01-15T03:59:06;14.5;;;6.5;;
24867;SDS011;12941;48.698;9.310;2024-01-15T04:00:11;14.5;;;6.5;;
24867;SDS011;12941;48.698;9.310;2024-01-15T04:01:16;14.5;;;6.5;;
24867;SDS011;12941;48.698;9.310;2024-01-15T04:02:16;14.5;;;6.5;;
24867;SDS011;12941;48.698;9.310;2024-01-15T04:03:16;14.5;;;6.5;;
24867;SDS011;12941;48.698;9.310;2024-01-15T04:04:21;15.3;;;6.7;;
24867;SDS011;12941;48.698;9.310;2024-01-15T04:05:21;15.3;;;6.7;;
24867;SDS011;12941;48.698;9.310;2024-01-15T04:06:26;15.3;;;6.7;;
24867;SDS011;12941;48.698;9.310;2024-01-15T04:07:26;15.3;;;6.7;;
24867;SDS011;12941;48.698;9.310;2024-01-15T04:08:26;15.3;;;6.7;;
24867;SDS011;12941;48.698;9.310;2024-01-15T04:09:31;14.9;;;6.8;;
24867;SDS011;12941;48.698;9.310;2024-01-15T04:10:31;14.9;;;6.8;;
24867;SDS011;12941;48.698;9.310;2024-01-15T04:11:36;14.9;;;6.8;;
24867;SDS011;12941;48.698;9.310;2024-01-15T04:12:41;14.9;;;6.8;;
24867;SDS011;12941;48.698;9.310;2024-01-15T04:13:46;14.9;;;6.8;;
24867;SDS011;12941;48.698;9.310;2024-01-15T04:14:51;13.7;;;7;;
24867;SDS011;12941;48.698;9.310;2024-01-15T04:15:56;13.7;;;7;;
24867;SDS011;12941;48.698;9.310;2024-01-15T04:17:01;13.7;;;7;;
24867;SDS011;12941;48.698;9.310;2024-01-15T04:18:06;13.7;;;7;;
24867;SDS011;12941;48.698;9.310;2024-01-15T04:19:06;13.5;;;6.1;;
24867;SDS011;12941;48.698;9.310;2024-01-15T04:20:11;13.5;;;6.1;;
24867;SDS011;12941;48.698;9.310;2024-01-15T04:21:11;13.5;;;6.1;;
24867;SDS011;12941;48.698;9.310;2024-01-15T04:22:16;13.5;;;6.1;;
24867;SDS011;12941;48.698;9.310;2024-01-15T04:23:21;13.5;;;6.1;;
24867;SDS011;12941;48.698;9.310;2024-01-15T04:24:26;13.1;;;6.3;;
24867;SDS011;12941;48.698;9.310;2024-01-15T04:25:31;13.1;;;6.3;;
24867;SDS011;12941;48.698;9.310;2024-01-15T04:26:31;13.1;;;6.3;;
24867;SDS011;12941;48.698;9.310;2024-01-15T04:27:36;13.1;;;6.3;;
24867;SDS011;12941;48.698;9.310;2024-01-15T04:28:36;13.1;;;6.3;;
24867;SDS011;12941;48.698;9.310;2024-01-15T04:29:37;14.6;;;6.5;;
24867;SDS011;12941;48.698;9.310;2024-01-15T04:30:41;14.6;;;6.5;;
24867;SDS011;12941;48.698;9.310;2024-01-15T04:31:46;14.6;;;6.5;;
24867;SDS011;12941;48.698;9.310;2024-01-15T04:32:51;14.6;;;6.5;;
24867;SDS011;12941;48.698;9.310;2024-01-15T04:33:51;15.8;;;7.6;;
24867;SDS011;12941;48.698;9.310;2024-01-15T04:34:56;15.6;;;7.5;;
24867;SDS011;12941;48.698;9.310;2024-01-15T04:36:01;15.6;;;7.5;;
24867;SDS011;12941;48.698;9.310;2024-01-15T04:37:01;15.6;;;7.5;;
24867;SDS011;12941;48.698;9.310;2024-01-15T04:38:01;15.6;;;7.5;;
24867;SDS011;12941;48.698;9.310;2024-01-15T04:39:06;13.1;;;6;;
24867;SDS011;12941;48.698;9.310;2024-01-15T04:40:06;13.1;;;6;;
24867;SDS011;12941;48.698;9.310;2024-01-15T04:41:11;13.1;;;6;;
24867;SDS011;12941;48.698;9.310;2024-01-15T04:42:11;13.1;;;6;;
24867;SDS011;12941;48.698;9.310;2024-01-15T04:43:16;13.1;;;6;;
24867;SDS011;12941;48.698;9.310;2024-01-15T04:44:16;16.2;;;7.3;;
24867;SDS011;12941;48.698;9.310;2024-01-15T04:45:21;16.2;;;7.3;;
24867;SDS011;12941;48.698;9.310;2024-01-15T04:46:21;16.2;;;7.3;;
24867;SDS011;12941;48.698;9.310;2024-01-15T04:47:21;16.2;;;7.3;;
24867;SDS011;12941;48.698;9.310;2024-01-15T04:48:26;16.2;;;7.3;;
24867;SDS011;12941;48.698;9.310;2024-01-15T04:49:26;14.6;;;7.4;;
24867;SDS011;12941;48.698;9.310;2024-01-15T04:50:26;14.6;;;7.4;;
24867;SDS011;12941;48.698;9.310;2024-01-15T04:51:31;14.6;;;7.4;;
24867;SDS011;12941;48.698;9.310;2024-01-15T04:52:31;14.6;;;7.4;;
24867;SDS011;12941;48.698;9.310;2024-01-15T04:53:31;14.6;;;7.4;;
24867;SDS011;12941;48.698;9.310;2024-01-15T04:54:31;16.5;;;7.4;;
24867;SDS011;12941;48.698;9.310;2024-01-15T04:55:31;16.5;;;7.4;;
24867;SDS011;12941;48.698;9.310;2024-01-15T04:56:36;16.5;;;7.4;;
24867;SDS011;12941;48.698;9.310;2024-01-15T04:57:41;16.5;;;7.4;;
24867;SDS011;12941;48.698;9.310;2024-01-15T04:58:46;16.5;;;7.4;;
24867;SDS011;12941;48.698;9.310;2024-01-15T04:59:46;14.3;;;6.9;;
24867;SDS011;12941;48.698;9.310;2024-01-15T05:00:51;14.3;;;6.9;;
24867;SDS011;12941;48.698;9.310;2024-01-15T05:01:51;14.3;;;6.9;;
24867;SDS011;12941;48.698;9.310;2024-01-15T05:02:51;14.3;;;6.9;;
24867;SDS011;12941;48.698;9.310;2024-01-15T05:03:51;16.1;;;7.3;;
24867;SDS011;12941;48.698;9.310;2024-01-15T05:04:56;16;;;7.3;;
24867;SDS011;12941;48.698;9.310;2024-01-15T05:06:01;16;;;7.3;;
24867;SDS011;12941;48.698;9.310;2024-01-15T05:07:06;16;;;7.3;;
24867;SDS011;12941;48.698;9.310;2024-01-15T05:08:06;16;;;7.3;;
24867;SDS011;12941;48.698;9.310;2024-01-15T05:09:11;14.3;;;7;;
24867;SDS011;12941;48.698;9.310;2024-01-15T05:10:11;14.3;;;7;;
24867;SDS011;12941;48.698;9.310;2024-01-15T05:11:11;14.3;;;7;;
24867;SDS011;12941;48.698;9.310;2024-01-15T05:12:11;14.3;;;7;;
24867;SDS011;12941;48.698;9.310;2024-01-15T05:13:11;14.3;;;7;;
24867;SDS011;12941;48.698;9.310;2024-01-15T05:14:11;12.5;;;6.6;;
24867;SDS011;12941;48.698;9.310;2024-01-15T05:15:11;12.5;;;6.6;;
24867;SDS011;12941;48.698;9.310;2024-01-15T05:16:16;12.5;;;6.6;;
24867;SDS011;12941;48.698;9.310;2024-01-15T05:17:16;12.5;;;6.6;;
24867;SDS011;12941;48.698;9.310;2024-01-15T05:18:21;12.5;;;6.6;;
24867;SDS011;12941;48.698;9.310;2024-01-15T05:19:21;14.7;;;7.1;;
24867;SDS011;12941;48.698;9.310;2024-01-15T05:20:21;14.7;;;7.1;;
24867;SDS011;12941;48.698;9.310;2024-01-15T05:21:26;14.7;;;7.1;;
24867;SDS011;12941;48.698;9.310;2024-01-15T05:22:26;14.7;;;7.1;;
24867;SDS011;12941;48.698;9.310;2024-01-15T05:23:31;14.7;;;7.1;;
24867;SDS011;12941;48.698;9.310;2024-01-15T05:24:36;15.3;;;7.3;;
24867;SDS011;12941;48.698;9.310;2024-01-15T05:25:41;15.3;;;7.3;;
24867;SDS011;12941;48.698;9.310;2024-01-15T05:26:46;15.3;;;7.3;;
24867;SDS011;12941;48.698;9.310;2024-01-15T05:27:51;15.3;;;7.3;;
24867;SDS011;12941;48.698;9.310;2024-01-15T05:28:51;16.3;;;8;;
24867;SDS011;12941;48.698;9.310;2024-01-15T05:29:51;16.5;;;8;;
24867;SDS011;12941;48.698;9.310;2024-01-15T05:30:51;16.5;;;8;;
24867;SDS011;12941;48.698;9.310;2024-01-15T05:31:51;16.5;;;8;;
24867;SDS011;12941;48.698;9.310;2024-01-15T05:32:51;16.5;;;8;;
24867;SDS011;12941;48.698;9.310;2024-01-15T05:33:52;17.8;;;8.5;;
24867;SDS011;12941;48.698;9.310;2024-01-15T05:34:56;17.8;;;8.5;;
24867;SDS011;12941;48.698;9.310;2024-01-15T05:35:56;17.8;;;8.5;;
24867;SDS011;12941;48.698;9.310;2024-01-15T05:37:01;17.8;;;8.5;;
24867;SDS011;12941;48.698;9.310;2024-01-15T05:38:06;17.8;;;8.5;;
24867;SDS011;12941;48.698;9.310;2024-01-15T05:39:06;15.6;;;8.2;;
24867;SDS011;12941;48.698;9.310;2024-01-15T05:40:11;15.6;;;8.2;;
24867;SDS011;12941;48.698;9.310;2024-01-15T05:41:11;15.6;;;8.2;;
24867;SDS011;12941;48.698;9.310;2024-01-15T05:42:11;15.6;;;8.2;;
24867;SDS011;12941;48.698;9.310;2024-01-15T05:43:11;15.6;;;8.2;;
24867;SDS011;12941;48.698;9.310;2024-01-15T05:44:16;17.6;;;8.7;;
24867;SDS011;12941;48.698;9.310;2024-01-15T05:45:16;17.6;;;8.7;;
24867;SDS011;12941;48.698;9.310;2024-01-15T05:46:21;17.6;;;8.7;;
24867;SDS011;12941;48.698;9.310;2024-01-15T05:47:26;17.6;;;8.7;;
24867;SDS011;12941;48.698;9.310;2024-01-15T05:48:26;17.6;;;8.7;;
24867;SDS011;12941;48.698;9.310;2024-01-15T05:49:31;16.2;;;8.1;;
24867;SDS011;12941;48.698;9.310;2024-01-15T05:50:31;16.2;;;8.1;;
24867;SDS011;12941;48.698;9.310;2024-01-15T05:51:36;16.2;;;8.1;;
24867;SDS011;12941;48.698;9.310;2024-01-15T05:52:36;16.2;;;8.1;;
24867;SDS011;12941;48.698;9.310;2024-01-15T05:53:41;16.2;;;8.1;;
24867;SDS011;12941;48.698;9.310;2024-01-15T05:54:46;17;;;8.4;;
24867;SDS011;12941;48.698;9.310;2024-01-15T05:55:46;17;;;8.4;;
24867;SDS011;12941;48.698;9.310;2024-01-15T05:56:51;17;;;8.4;;
24867;SDS011;12941;48.698;9.310;2024-01-15T05:57:51;17;;;8.4;;
24867;SDS011;12941;48.698;9.310;2024-01-15T05:58:52;19;;;9.1;;
24867;SDS011;12941;48.698;9.310;2024-01-15T05:59:56;19;;;9.1;;
24867;SDS011;12941;48.698;9.310;2024-01-15T06:00:56;19;;;9.1;;
24867;SDS011;12941;48.698;9.310;2024-01-15T06:02:01;19;;;9.1;;
24867;SDS011;12941;48.698;9.310;2024-01-15T06:03:01;19;;;9.1;;
24867;SDS011;12941;48.698;9.310;2024-01-15T06:04:06;18.6;;;9.9;;
24867;SDS011;12941;48.698;9.310;2024-01-15T06:05:11;18.6;;;9.9;;
24867;SDS011;12941;48.698;9.310;2024-01-15T06:06:11;18.6;;;9.9;;
24867;SDS011;12941;48.698;9.310;2024-01-15T06:07:16;18.6;;;9.9;;
24867;SDS011;12941;48.698;9.310;2024-01-15T06:08:16;18.6;;;9.9;;
24867;SDS011;12941;48.698;9.310;2024-01-15T06:09:16;15.6;;;7.4;;
24867;SDS011;12941;48.698;9.310;2024-01-15T06:10:16;15.6;;;7.4;;
24867;SDS011;12941;48.698;9.310;2024-01-15T06:11:21;15.6;;;7.4;;
24867;SDS011;12941;48.698;9.310;2024-01-15T06:12:27;15.6;;;7.4;;
24867;SDS011;12941;48.698;9.310;2024-01-15T06:13:31;15.6;;;7.4;;
24867;SDS011;12941;48.698;9.310;2024-01-15T06:14:31;17.1;;;8.1;;
24867;SDS011;12941;48.698;9.310;2024-01-15T06:15:36;17.1;;;8.1;;
24867;SDS011;12941;48.698;9.310;2024-01-15T06:16:36;17.1;;;8.1;;
24867;SDS011;12941;48.698;9.310;2024-01-15T06:17:36;17.1;;;8.1;;
24867;SDS011;12941;48.698;9.310;2024-01-15T06:18:36;17.1;;;8.1;;
24867;SDS011;12941;48.698;9.310;2024-01-15T06:19:36;14.7;;;7.7;;
24867;SDS011;12941;48.698;9.310;2024-01-15T06:20:36;14.7;;;7.7;;
24867;SDS011;12941;48.698;9.310;2024-01-15T06:21:41;14.7;;;7.7;;
24867;SDS011;12941;48.698;9.310;2024-01-15T06:22:46;14.7;;;7.7;;
24867;SDS011;12941;48.698;9.310;2024-01-15T06:23:51;16.5;;;7.6;;
24867;SDS011;12941;48.698;9.310;2024-01-15T06:24:57;16.3;;;7.4;;
24867;SDS011;12941;48.698;9.310;2024-01-15T06:26:01;16.3;;;7.4;;